PWSweather.com
Personal Weather Stations
Station Observations
270882
Flassian, LimouxFR 11300

FlassianLimouxFR 11300

Lat: 43.071798, Lon: 2.217292

Elevation: 165

Station Type: Oregon WMR 200

http://www.meteolimoux.fr

High Low Average
Temperature 61.3°F16.3°C 46.4°F8.0°C 54.4°F12.4°C
Dew Point 48.6°F9.2°C 36.9°F2.7°C 40.9°F4.9°C
Winds 16.3 mph 26.2 kmh Calm Calm 8.0 mph W12.9 kmh W
Wind Gusts 32.0 mph51.5 kmh -- 15.0 mph24.1 kmh
Humidity 81% 49% 61%
Pressure 30.37 in1028.4 mb 30.16 in1021.3 mb -
Precipitation 0.00 in0.0 mm - -
Hour Temp Dew Point Humidity Winds Wind Gusts Pressure Precip Precip Rate Daily Precip Total
12:02 AM 51.4°F10.8°C 37.6°F3.1°C 59% 4.0 mph WSW6.4 kmh WSW 8.7 mph14.0 kmh 30.34 in1027.4 mb - 0.00 in0.0 mm 0.00 in0.0 mm
12:07 AM 51.4°F10.8°C 37.6°F3.1°C 59% 5.4 mph W8.7 kmh W 9.6 mph15.4 kmh 30.34 in1027.4 mb - 0.00 in0.0 mm 0.00 in0.0 mm
12:12 AM 51.4°F10.8°C 38.1°F3.4°C 60% 2.7 mph WSW4.3 kmh WSW 8.7 mph14.0 kmh 30.34 in1027.4 mb - 0.00 in0.0 mm 0.00 in0.0 mm
12:17 AM 51.4°F10.8°C 38.1°F3.4°C 60% 4.7 mph WSW7.6 kmh WSW 9.6 mph15.4 kmh 30.34 in1027.4 mb - 0.00 in0.0 mm 0.00 in0.0 mm
12:22 AM 51.4°F10.8°C 38.1°F3.4°C 60% 6.5 mph WSW10.5 kmh WSW 13.9 mph22.4 kmh 30.34 in1027.4 mb - 0.00 in0.0 mm 0.00 in0.0 mm
12:27 AM 51.4°F10.8°C 38.1°F3.4°C 60% 4.7 mph WSW7.6 kmh WSW 8.9 mph14.3 kmh 30.34 in1027.4 mb - 0.00 in0.0 mm 0.00 in0.0 mm
12:32 AM 51.4°F10.8°C 38.1°F3.4°C 60% 5.8 mph W9.3 kmh W 12.1 mph19.5 kmh 30.34 in1027.4 mb - 0.00 in0.0 mm 0.00 in0.0 mm
12:37 AM 51.3°F10.7°C 37.9°F3.3°C 60% 5.4 mph WSW8.7 kmh WSW 11.4 mph18.3 kmh 30.34 in1027.4 mb - 0.00 in0.0 mm 0.00 in0.0 mm
12:42 AM 51.3°F10.7°C 37.9°F3.3°C 60% 6.3 mph W10.1 kmh W 6.3 mph10.1 kmh 30.34 in1027.4 mb - 0.00 in0.0 mm 0.00 in0.0 mm
12:47 AM 51.1°F10.6°C 37.8°F3.2°C 60% 6.0 mph WSW9.7 kmh WSW 11.6 mph18.7 kmh 30.34 in1027.4 mb - 0.00 in0.0 mm 0.00 in0.0 mm
12:52 AM 51.1°F10.6°C 38.1°F3.4°C 61% 5.4 mph W8.7 kmh W 14.5 mph23.3 kmh 30.37 in1028.4 mb - 0.00 in0.0 mm 0.00 in0.0 mm
12:57 AM 51.1°F10.6°C 38.1°F3.4°C 61% 4.5 mph WSW7.2 kmh WSW 10.5 mph16.9 kmh 30.37 in1028.4 mb - 0.00 in0.0 mm 0.00 in0.0 mm
01:02 AM 51.1°F10.6°C 38.1°F3.4°C 61% 5.8 mph W9.3 kmh W 12.3 mph19.8 kmh 30.37 in1028.4 mb - 0.00 in0.0 mm 0.00 in0.0 mm
01:07 AM 51.1°F10.6°C 38.1°F3.4°C 61% 4.9 mph W7.9 kmh W 4.9 mph7.9 kmh 30.37 in1028.4 mb - 0.00 in0.0 mm 0.00 in0.0 mm
01:12 AM 51.1°F10.6°C 38.1°F3.4°C 61% 5.4 mph WSW8.7 kmh WSW 10.5 mph16.9 kmh 30.37 in1028.4 mb - 0.00 in0.0 mm 0.00 in0.0 mm
01:17 AM 51.1°F10.6°C 38.1°F3.4°C 61% 4.7 mph WSW7.6 kmh WSW 8.3 mph13.4 kmh 30.37 in1028.4 mb - 0.00 in0.0 mm 0.00 in0.0 mm
01:22 AM 51.1°F10.6°C 38.1°F3.4°C 61% 5.6 mph W9.0 kmh W 12.1 mph19.5 kmh 30.34 in1027.4 mb - 0.00 in0.0 mm 0.00 in0.0 mm
01:27 AM 50.9°F10.5°C 37.9°F3.3°C 61% 5.8 mph W9.3 kmh W 11.9 mph19.2 kmh 30.34 in1027.4 mb - 0.00 in0.0 mm 0.00 in0.0 mm
01:32 AM 50.9°F10.5°C 37.9°F3.3°C 61% 4.7 mph W7.6 kmh W 7.8 mph12.6 kmh 30.34 in1027.4 mb - 0.00 in0.0 mm 0.00 in0.0 mm
01:37 AM 50.7°F10.4°C 37.8°F3.2°C 61% 5.6 mph WSW9.0 kmh WSW 11.9 mph19.2 kmh 30.34 in1027.4 mb - 0.00 in0.0 mm 0.00 in0.0 mm
01:42 AM 50.7°F10.4°C 37.8°F3.2°C 61% 4.0 mph W6.4 kmh W 8.5 mph13.7 kmh 30.34 in1027.4 mb - 0.00 in0.0 mm 0.00 in0.0 mm
01:47 AM 50.7°F10.4°C 37.8°F3.2°C 61% 3.4 mph W5.5 kmh W 8.1 mph13.0 kmh 30.34 in1027.4 mb - 0.00 in0.0 mm 0.00 in0.0 mm
01:52 AM 50.7°F10.4°C 37.8°F3.2°C 61% 4.5 mph WSW7.2 kmh WSW 8.7 mph14.0 kmh 30.34 in1027.4 mb - 0.00 in0.0 mm 0.00 in0.0 mm
01:57 AM 50.7°F10.4°C 37.8°F3.2°C 61% 3.4 mph WNW5.5 kmh WNW 6.9 mph11.1 kmh 30.34 in1027.4 mb - 0.00 in0.0 mm 0.00 in0.0 mm
02:02 AM 50.5°F10.3°C 37.9°F3.3°C 62% 3.4 mph WSW5.5 kmh WSW 10.3 mph16.6 kmh 30.34 in1027.4 mb - 0.00 in0.0 mm 0.00 in0.0 mm
02:07 AM 50.5°F10.3°C 37.9°F3.3°C 62% 3.1 mph W5.0 kmh W 6.7 mph10.8 kmh 30.34 in1027.4 mb - 0.00 in0.0 mm 0.00 in0.0 mm
02:12 AM 50.2°F10.1°C 37.2°F2.9°C 61% 2.9 mph WSW4.7 kmh WSW 6.9 mph11.1 kmh 30.34 in1027.4 mb - 0.00 in0.0 mm 0.00 in0.0 mm
02:17 AM 50.0°F10.0°C 37.6°F3.1°C 62% 2.0 mph SW3.2 kmh SW 5.4 mph8.7 kmh 30.34 in1027.4 mb - 0.00 in0.0 mm 0.00 in0.0 mm
02:22 AM 49.8°F9.9°C 37.4°F3.0°C 62% 0.7 mph WSW1.1 kmh WSW 4.5 mph7.2 kmh 30.34 in1027.4 mb - 0.00 in0.0 mm 0.00 in0.0 mm
02:27 AM 49.6°F9.8°C 37.2°F2.9°C 62% 0.7 mph SW1.1 kmh SW 3.8 mph6.1 kmh 30.34 in1027.4 mb - 0.00 in0.0 mm 0.00 in0.0 mm
02:32 AM 49.5°F9.7°C 37.0°F2.8°C 62% Calm Calm -- 30.34 in1027.4 mb - 0.00 in0.0 mm 0.00 in0.0 mm
02:37 AM 49.3°F9.6°C 37.2°F2.9°C 63% 0.9 mph WSW1.4 kmh WSW 3.8 mph6.1 kmh 30.34 in1027.4 mb - 0.00 in0.0 mm 0.00 in0.0 mm
02:42 AM 49.1°F9.5°C 37.0°F2.8°C 63% Calm Calm 1.3 mph2.1 kmh 30.34 in1027.4 mb - 0.00 in0.0 mm 0.00 in0.0 mm
02:47 AM 48.9°F9.4°C 36.9°F2.7°C 63% 1.6 mph WNW2.6 kmh WNW 4.7 mph7.6 kmh 30.34 in1027.4 mb - 0.00 in0.0 mm 0.00 in0.0 mm
02:52 AM 48.9°F9.4°C 37.2°F2.9°C 64% 0.7 mph W1.1 kmh W 2.9 mph4.7 kmh 30.31 in1026.4 mb - 0.00 in0.0 mm 0.00 in0.0 mm
02:57 AM 48.9°F9.4°C 37.8°F3.2°C 65% 1.3 mph WSW2.1 kmh WSW 4.5 mph7.2 kmh 30.31 in1026.4 mb - 0.00 in0.0 mm 0.00 in0.0 mm
03:02 AM 48.9°F9.4°C 37.8°F3.2°C 65% 1.8 mph WNW2.9 kmh WNW 5.6 mph9.0 kmh 30.31 in1026.4 mb - 0.00 in0.0 mm 0.00 in0.0 mm
03:07 AM 48.9°F9.4°C 38.1°F3.4°C 66% 2.2 mph W3.5 kmh W 6.3 mph10.1 kmh 30.31 in1026.4 mb - 0.00 in0.0 mm 0.00 in0.0 mm
03:12 AM 48.9°F9.4°C 38.1°F3.4°C 66% 3.4 mph SW5.5 kmh SW 7.6 mph12.2 kmh 30.31 in1026.4 mb - 0.00 in0.0 mm 0.00 in0.0 mm
03:17 AM 48.9°F9.4°C 38.5°F3.6°C 67% 3.6 mph W5.8 kmh W 8.3 mph13.4 kmh 30.31 in1026.4 mb - 0.00 in0.0 mm 0.00 in0.0 mm
03:22 AM 48.9°F9.4°C 38.5°F3.6°C 67% 3.6 mph WSW5.8 kmh WSW 9.2 mph14.8 kmh 30.31 in1026.4 mb - 0.00 in0.0 mm 0.00 in0.0 mm
03:27 AM 48.7°F9.3°C 38.3°F3.5°C 67% 4.3 mph WSW6.9 kmh WSW 8.9 mph14.3 kmh 30.31 in1026.4 mb - 0.00 in0.0 mm 0.00 in0.0 mm
03:32 AM 48.7°F9.3°C 38.3°F3.5°C 67% 4.3 mph WSW6.9 kmh WSW 7.4 mph11.9 kmh 30.31 in1026.4 mb - 0.00 in0.0 mm 0.00 in0.0 mm
03:37 AM 48.6°F9.2°C 38.1°F3.4°C 67% 4.3 mph W6.9 kmh W 7.6 mph12.2 kmh 30.31 in1026.4 mb - 0.00 in0.0 mm 0.00 in0.0 mm
03:42 AM 48.4°F9.1°C 37.6°F3.1°C 66% 3.1 mph WSW5.0 kmh WSW 3.1 mph5.0 kmh 30.31 in1026.4 mb - 0.00 in0.0 mm 0.00 in0.0 mm
03:47 AM 48.2°F9.0°C 37.8°F3.2°C 67% 2.2 mph W3.5 kmh W 5.8 mph9.3 kmh 30.31 in1026.4 mb - 0.00 in0.0 mm 0.00 in0.0 mm
03:52 AM 48.2°F9.0°C 37.8°F3.2°C 67% 3.1 mph SW5.0 kmh SW 6.0 mph9.7 kmh 30.28 in1025.4 mb - 0.00 in0.0 mm 0.00 in0.0 mm
03:57 AM 48.0°F8.9°C 37.6°F3.1°C 67% 2.9 mph SW4.7 kmh SW 5.4 mph8.7 kmh 30.28 in1025.4 mb - 0.00 in0.0 mm 0.00 in0.0 mm
04:02 AM 47.7°F8.7°C 37.2°F2.9°C 67% 2.9 mph SSW4.7 kmh SSW 4.7 mph7.6 kmh 30.28 in1025.4 mb - 0.00 in0.0 mm 0.00 in0.0 mm
04:07 AM 47.7°F8.7°C 37.2°F2.9°C 67% 3.1 mph SW5.0 kmh SW 6.0 mph9.7 kmh 30.28 in1025.4 mb - 0.00 in0.0 mm 0.00 in0.0 mm
04:12 AM 47.5°F8.6°C 37.4°F3.0°C 68% 1.6 mph WSW2.6 kmh WSW 4.9 mph7.9 kmh 30.28 in1025.4 mb - 0.00 in0.0 mm 0.00 in0.0 mm
04:17 AM 47.3°F8.5°C 37.2°F2.9°C 68% 2.7 mph SW4.3 kmh SW 4.7 mph7.6 kmh 30.28 in1025.4 mb - 0.00 in0.0 mm 0.00 in0.0 mm
04:22 AM 47.3°F8.5°C 37.2°F2.9°C 68% 2.5 mph WSW4.0 kmh WSW 4.9 mph7.9 kmh 30.28 in1025.4 mb - 0.00 in0.0 mm 0.00 in0.0 mm
04:27 AM 47.1°F8.4°C 37.0°F2.8°C 68% 3.1 mph SW5.0 kmh SW 6.3 mph10.1 kmh 30.28 in1025.4 mb - 0.00 in0.0 mm 0.00 in0.0 mm
04:32 AM 47.1°F8.4°C 37.6°F3.1°C 69% 3.1 mph SW5.0 kmh SW 3.1 mph5.0 kmh 30.28 in1025.4 mb - 0.00 in0.0 mm 0.00 in0.0 mm
04:37 AM 47.1°F8.4°C 37.6°F3.1°C 69% 3.4 mph SSW5.5 kmh SSW 3.4 mph5.5 kmh 30.28 in1025.4 mb - 0.00 in0.0 mm 0.00 in0.0 mm
04:42 AM 47.1°F8.4°C 37.9°F3.3°C 70% 3.1 mph SSW5.0 kmh SSW 5.6 mph9.0 kmh 30.28 in1025.4 mb - 0.00 in0.0 mm 0.00 in0.0 mm
04:47 AM 47.1°F8.4°C 37.9°F3.3°C 70% 2.5 mph SW4.0 kmh SW 5.4 mph8.7 kmh 30.28 in1025.4 mb - 0.00 in0.0 mm 0.00 in0.0 mm
04:52 AM 47.3°F8.5°C 38.1°F3.4°C 70% 3.6 mph WSW5.8 kmh WSW 6.3 mph10.1 kmh 30.28 in1025.4 mb - 0.00 in0.0 mm 0.00 in0.0 mm
04:57 AM 47.3°F8.5°C 38.1°F3.4°C 70% 3.4 mph SW5.5 kmh SW 6.0 mph9.7 kmh 30.28 in1025.4 mb - 0.00 in0.0 mm 0.00 in0.0 mm
05:02 AM 47.3°F8.5°C 38.1°F3.4°C 70% 2.9 mph SW4.7 kmh SW 5.1 mph8.2 kmh 30.28 in1025.4 mb - 0.00 in0.0 mm 0.00 in0.0 mm
05:07 AM 47.3°F8.5°C 38.1°F3.4°C 70% 2.7 mph SW4.3 kmh SW 4.5 mph7.2 kmh 30.25 in1024.4 mb - 0.00 in0.0 mm 0.00 in0.0 mm
05:12 AM 47.3°F8.5°C 38.5°F3.6°C 71% 3.6 mph SW5.8 kmh SW 6.0 mph9.7 kmh 30.25 in1024.4 mb - 0.00 in0.0 mm 0.00 in0.0 mm
05:17 AM 47.5°F8.6°C 38.5°F3.6°C 71% 4.0 mph SW6.4 kmh SW 6.3 mph10.1 kmh 30.25 in1024.4 mb - 0.00 in0.0 mm 0.00 in0.0 mm
05:22 AM 47.5°F8.6°C 38.5°F3.6°C 71% 4.5 mph SW7.2 kmh SW 7.8 mph12.6 kmh 30.25 in1024.4 mb - 0.00 in0.0 mm 0.00 in0.0 mm
05:27 AM 47.3°F8.5°C 38.5°F3.6°C 71% 4.0 mph WSW6.4 kmh WSW 6.3 mph10.1 kmh 30.25 in1024.4 mb - 0.00 in0.0 mm 0.00 in0.0 mm
05:32 AM 47.3°F8.5°C 38.5°F3.6°C 71% 4.5 mph SW7.2 kmh SW 8.1 mph13.0 kmh 30.25 in1024.4 mb - 0.00 in0.0 mm 0.00 in0.0 mm
05:37 AM 47.3°F8.5°C 38.5°F3.6°C 71% 4.5 mph WSW7.2 kmh WSW 6.5 mph10.5 kmh 30.28 in1025.4 mb - 0.00 in0.0 mm 0.00 in0.0 mm
05:42 AM 47.3°F8.5°C 38.5°F3.6°C 71% 4.7 mph SW7.6 kmh SW 7.4 mph11.9 kmh 30.28 in1025.4 mb - 0.00 in0.0 mm 0.00 in0.0 mm
05:47 AM 47.3°F8.5°C 38.5°F3.6°C 71% 3.6 mph SW5.8 kmh SW 6.0 mph9.7 kmh 30.28 in1025.4 mb - 0.00 in0.0 mm 0.00 in0.0 mm
05:52 AM 47.1°F8.4°C 38.3°F3.5°C 71% 3.6 mph SW5.8 kmh SW 6.5 mph10.5 kmh 30.28 in1025.4 mb - 0.00 in0.0 mm 0.00 in0.0 mm
05:57 AM 47.1°F8.4°C 38.3°F3.5°C 71% 3.6 mph SW5.8 kmh SW 6.3 mph10.1 kmh 30.28 in1025.4 mb - 0.00 in0.0 mm 0.00 in0.0 mm
06:02 AM 47.1°F8.4°C 38.3°F3.5°C 71% 3.8 mph SW6.1 kmh SW 5.6 mph9.0 kmh 30.28 in1025.4 mb - 0.00 in0.0 mm 0.00 in0.0 mm
06:07 AM 47.1°F8.4°C 38.3°F3.5°C 71% 4.0 mph SW6.4 kmh SW 6.9 mph11.1 kmh 30.25 in1024.4 mb - 0.00 in0.0 mm 0.00 in0.0 mm
06:12 AM 46.9°F8.3°C 38.5°F3.6°C 72% 3.1 mph SW5.0 kmh SW 5.1 mph8.2 kmh 30.25 in1024.4 mb - 0.00 in0.0 mm 0.00 in0.0 mm
06:17 AM 46.9°F8.3°C 38.5°F3.6°C 72% 3.8 mph SW6.1 kmh SW 5.8 mph9.3 kmh 30.25 in1024.4 mb - 0.00 in0.0 mm 0.00 in0.0 mm
06:22 AM 46.8°F8.2°C 38.3°F3.5°C 72% 3.6 mph SW5.8 kmh SW 5.4 mph8.7 kmh 30.25 in1024.4 mb - 0.00 in0.0 mm 0.00 in0.0 mm
06:27 AM 46.8°F8.2°C 38.3°F3.5°C 72% 3.8 mph SSW6.1 kmh SSW 6.3 mph10.1 kmh 30.25 in1024.4 mb - 0.00 in0.0 mm 0.00 in0.0 mm
06:32 AM 46.8°F8.2°C 38.3°F3.5°C 72% 3.8 mph SSW6.1 kmh SSW 6.5 mph10.5 kmh 30.25 in1024.4 mb - 0.00 in0.0 mm 0.00 in0.0 mm
06:37 AM 46.8°F8.2°C 38.3°F3.5°C 72% 3.1 mph SW5.0 kmh SW 6.3 mph10.1 kmh 30.25 in1024.4 mb - 0.00 in0.0 mm 0.00 in0.0 mm
06:42 AM 46.6°F8.1°C 38.1°F3.4°C 72% 2.9 mph SW4.7 kmh SW 4.7 mph7.6 kmh 30.25 in1024.4 mb - 0.00 in0.0 mm 0.00 in0.0 mm
06:47 AM 46.6°F8.1°C 38.1°F3.4°C 72% 2.9 mph SW4.7 kmh SW 5.8 mph9.3 kmh 30.25 in1024.4 mb - 0.00 in0.0 mm 0.00 in0.0 mm
06:52 AM 46.6°F8.1°C 38.1°F3.4°C 72% 3.4 mph SW5.5 kmh SW 3.4 mph5.5 kmh 30.25 in1024.4 mb - 0.00 in0.0 mm 0.00 in0.0 mm
06:57 AM 46.6°F8.1°C 38.1°F3.4°C 72% 3.6 mph SW5.8 kmh SW 6.9 mph11.1 kmh 30.25 in1024.4 mb - 0.00 in0.0 mm 0.00 in0.0 mm
07:02 AM 46.8°F8.2°C 38.3°F3.5°C 72% 4.3 mph SW6.9 kmh SW 6.0 mph9.7 kmh 30.25 in1024.4 mb - 0.00 in0.0 mm 0.00 in0.0 mm
07:07 AM 46.6°F8.1°C 38.1°F3.4°C 72% 4.0 mph S6.4 kmh S 4.0 mph6.4 kmh 30.28 in1025.4 mb - 0.00 in0.0 mm 0.00 in0.0 mm
07:12 AM 46.6°F8.1°C 38.1°F3.4°C 72% 4.3 mph SSW6.9 kmh SSW 4.3 mph6.9 kmh 30.28 in1025.4 mb - 0.00 in0.0 mm 0.00 in0.0 mm
07:17 AM 46.6°F8.1°C 38.1°F3.4°C 72% 3.1 mph SW5.0 kmh SW 5.6 mph9.0 kmh 30.28 in1025.4 mb - 0.00 in0.0 mm 0.00 in0.0 mm
07:22 AM 46.4°F8.0°C 37.9°F3.3°C 72% 3.4 mph SW5.5 kmh SW 5.8 mph9.3 kmh 30.28 in1025.4 mb - 0.00 in0.0 mm 0.00 in0.0 mm
07:27 AM 46.6°F8.1°C 38.1°F3.4°C 72% 3.1 mph SW5.0 kmh SW 3.1 mph5.0 kmh 30.28 in1025.4 mb - 0.00 in0.0 mm 0.00 in0.0 mm
07:32 AM 46.8°F8.2°C 38.7°F3.7°C 73% 2.9 mph SW4.7 kmh SW 5.4 mph8.7 kmh 30.28 in1025.4 mb - 0.00 in0.0 mm 0.00 in0.0 mm
07:37 AM 46.9°F8.3°C 38.8°F3.8°C 73% 4.3 mph SW6.9 kmh SW 7.6 mph12.2 kmh 30.28 in1025.4 mb - 0.00 in0.0 mm 0.00 in0.0 mm
07:42 AM 47.1°F8.4°C 38.8°F3.8°C 73% 4.5 mph WSW7.2 kmh WSW 7.8 mph12.6 kmh 30.28 in1025.4 mb - 0.00 in0.0 mm 0.00 in0.0 mm
07:47 AM 47.3°F8.5°C 39.4°F4.1°C 74% 4.3 mph SW6.9 kmh SW 6.5 mph10.5 kmh 30.28 in1025.4 mb - 0.00 in0.0 mm 0.00 in0.0 mm
07:52 AM 47.8°F8.8°C 39.9°F4.4°C 74% 4.0 mph SW6.4 kmh SW 7.4 mph11.9 kmh 30.28 in1025.4 mb - 0.00 in0.0 mm 0.00 in0.0 mm
07:57 AM 48.2°F9.0°C 40.3°F4.6°C 74% 4.0 mph WSW6.4 kmh WSW 8.7 mph14.0 kmh 30.28 in1025.4 mb - 0.00 in0.0 mm 0.00 in0.0 mm
08:02 AM 48.7°F9.3°C 40.8°F4.9°C 74% 4.7 mph SW7.6 kmh SW 11.0 mph17.7 kmh 30.28 in1025.4 mb - 0.00 in0.0 mm 0.00 in0.0 mm
08:07 AM 49.3°F9.6°C 41.0°F5.0°C 73% 5.4 mph SW8.7 kmh SW 9.8 mph15.8 kmh 30.28 in1025.4 mb - 0.00 in0.0 mm 0.00 in0.0 mm
08:12 AM 49.6°F9.8°C 41.0°F5.0°C 72% 4.5 mph WSW7.2 kmh WSW 11.4 mph18.3 kmh 30.28 in1025.4 mb - 0.00 in0.0 mm 0.00 in0.0 mm
08:17 AM 50.0°F10.0°C 41.0°F5.0°C 71% 5.8 mph WNW9.3 kmh WNW 12.1 mph19.5 kmh 30.28 in1025.4 mb - 0.00 in0.0 mm 0.00 in0.0 mm
08:22 AM 50.5°F10.3°C 41.2°F5.1°C 70% 5.8 mph SW9.3 kmh SW 10.3 mph16.6 kmh 30.28 in1025.4 mb - 0.00 in0.0 mm 0.00 in0.0 mm
08:27 AM 50.7°F10.4°C 41.0°F5.0°C 69% 4.0 mph WNW6.4 kmh WNW 8.9 mph14.3 kmh 30.28 in1025.4 mb - 0.00 in0.0 mm 0.00 in0.0 mm
08:32 AM 51.3°F10.7°C 41.0°F5.0°C 68% 5.8 mph SSW9.3 kmh SSW 12.3 mph19.8 kmh 30.28 in1025.4 mb - 0.00 in0.0 mm 0.00 in0.0 mm
08:37 AM 51.6°F10.9°C 41.4°F5.2°C 68% 5.4 mph W8.7 kmh W 5.4 mph8.7 kmh 30.28 in1025.4 mb - 0.00 in0.0 mm 0.00 in0.0 mm
08:42 AM 51.8°F11.0°C 41.2°F5.1°C 67% 4.7 mph W7.6 kmh W 13.2 mph21.2 kmh 30.28 in1025.4 mb - 0.00 in0.0 mm 0.00 in0.0 mm
08:47 AM 52.2°F11.2°C 41.5°F5.3°C 67% 6.0 mph W9.7 kmh W 12.1 mph19.5 kmh 30.28 in1025.4 mb - 0.00 in0.0 mm 0.00 in0.0 mm
08:52 AM 52.3°F11.3°C 41.4°F5.2°C 66% 8.5 mph WSW13.7 kmh WSW 13.0 mph20.9 kmh 30.28 in1025.4 mb - 0.00 in0.0 mm 0.00 in0.0 mm
08:57 AM 52.5°F11.4°C 41.5°F5.3°C 66% 6.3 mph W10.1 kmh W 14.5 mph23.3 kmh 30.28 in1025.4 mb - 0.00 in0.0 mm 0.00 in0.0 mm
09:02 AM 52.9°F11.6°C 41.5°F5.3°C 65% 5.8 mph NW9.3 kmh NW 14.8 mph23.8 kmh 30.28 in1025.4 mb - 0.00 in0.0 mm 0.00 in0.0 mm
09:07 AM 53.1°F11.7°C 41.5°F5.3°C 65% 5.4 mph NW8.7 kmh NW 11.9 mph19.2 kmh 30.28 in1025.4 mb - 0.00 in0.0 mm 0.00 in0.0 mm
09:12 AM 53.2°F11.8°C 41.7°F5.4°C 65% 4.7 mph NW7.6 kmh NW 9.8 mph15.8 kmh 30.28 in1025.4 mb - 0.00 in0.0 mm 0.00 in0.0 mm
09:17 AM 53.4°F11.9°C 41.9°F5.5°C 65% 5.8 mph WNW9.3 kmh WNW 13.2 mph21.2 kmh 30.28 in1025.4 mb - 0.00 in0.0 mm 0.00 in0.0 mm
09:22 AM 53.6°F12.0°C 42.1°F5.6°C 65% 7.4 mph WNW11.9 kmh WNW 13.0 mph20.9 kmh 30.28 in1025.4 mb - 0.00 in0.0 mm 0.00 in0.0 mm
09:27 AM 54.0°F12.2°C 42.4°F5.8°C 65% 8.5 mph NW13.7 kmh NW 16.6 mph26.7 kmh 30.28 in1025.4 mb - 0.00 in0.0 mm 0.00 in0.0 mm
09:32 AM 54.0°F12.2°C 42.4°F5.8°C 65% 9.6 mph NW15.4 kmh NW 19.7 mph31.7 kmh 30.28 in1025.4 mb - 0.00 in0.0 mm 0.00 in0.0 mm
09:37 AM 54.0°F12.2°C 42.4°F5.8°C 65% 7.8 mph NW12.6 kmh NW 17.2 mph27.7 kmh 30.28 in1025.4 mb - 0.00 in0.0 mm 0.00 in0.0 mm
09:42 AM 53.8°F12.1°C 42.3°F5.7°C 65% 10.1 mph NW16.3 kmh NW 20.4 mph32.8 kmh 30.28 in1025.4 mb - 0.00 in0.0 mm 0.00 in0.0 mm
09:47 AM 54.0°F12.2°C 42.4°F5.8°C 65% 11.9 mph WNW19.2 kmh WNW 21.5 mph34.6 kmh 30.28 in1025.4 mb - 0.00 in0.0 mm 0.00 in0.0 mm
09:52 AM 54.0°F12.2°C 42.4°F5.8°C 65% 10.3 mph WNW16.6 kmh WNW 18.3 mph29.5 kmh 30.28 in1025.4 mb - 0.00 in0.0 mm 0.00 in0.0 mm
09:57 AM 54.3°F12.4°C 42.8°F6.0°C 65% 11.4 mph WNW18.3 kmh WNW 18.6 mph29.9 kmh 30.28 in1025.4 mb - 0.00 in0.0 mm 0.00 in0.0 mm
10:02 AM 54.1°F12.3°C 42.3°F5.7°C 64% 9.2 mph WNW14.8 kmh WNW 16.8 mph27.0 kmh 30.28 in1025.4 mb - 0.00 in0.0 mm 0.00 in0.0 mm
10:07 AM 54.1°F12.3°C 42.3°F5.7°C 64% 10.1 mph W16.3 kmh W 19.7 mph31.7 kmh 30.28 in1025.4 mb - 0.00 in0.0 mm 0.00 in0.0 mm
10:12 AM 54.3°F12.4°C 42.4°F5.8°C 64% 11.0 mph NW17.7 kmh NW 21.0 mph33.8 kmh 30.28 in1025.4 mb - 0.00 in0.0 mm 0.00 in0.0 mm
10:17 AM 54.3°F12.4°C 42.1°F5.6°C 63% 13.0 mph NW20.9 kmh NW 25.9 mph41.7 kmh 30.28 in1025.4 mb - 0.00 in0.0 mm 0.00 in0.0 mm
10:22 AM 54.1°F12.3°C 41.9°F5.5°C 63% 11.6 mph WNW18.7 kmh WNW 20.8 mph33.5 kmh 30.28 in1025.4 mb - 0.00 in0.0 mm 0.00 in0.0 mm
10:27 AM 54.0°F12.2°C 41.7°F5.4°C 63% 11.4 mph NW18.3 kmh NW 26.6 mph42.8 kmh 30.28 in1025.4 mb - 0.00 in0.0 mm 0.00 in0.0 mm
10:32 AM 54.1°F12.3°C 41.9°F5.5°C 63% 12.3 mph NW19.8 kmh NW 24.4 mph39.3 kmh 30.28 in1025.4 mb - 0.00 in0.0 mm 0.00 in0.0 mm
10:37 AM 54.5°F12.5°C 41.7°F5.4°C 62% 13.4 mph WNW21.6 kmh WNW 25.3 mph40.7 kmh 30.28 in1025.4 mb - 0.00 in0.0 mm 0.00 in0.0 mm
10:42 AM 54.5°F12.5°C 41.7°F5.4°C 62% 12.3 mph NW19.8 kmh NW 23.7 mph38.1 kmh 30.28 in1025.4 mb - 0.00 in0.0 mm 0.00 in0.0 mm
10:47 AM 55.0°F12.8°C 41.9°F5.5°C 61% 9.4 mph WNW15.1 kmh WNW 9.4 mph15.1 kmh 30.28 in1025.4 mb - 0.00 in0.0 mm 0.00 in0.0 mm
10:52 AM 54.9°F12.7°C 41.7°F5.4°C 61% 11.6 mph NW18.7 kmh NW 23.3 mph37.5 kmh 30.28 in1025.4 mb - 0.00 in0.0 mm 0.00 in0.0 mm
10:57 AM 55.0°F12.8°C 41.9°F5.5°C 61% 14.1 mph W22.7 kmh W 31.3 mph50.4 kmh 30.28 in1025.4 mb - 0.00 in0.0 mm 0.00 in0.0 mm
11:02 AM 55.6°F13.1°C 41.9°F5.5°C 60% 13.2 mph WNW21.2 kmh WNW 28.6 mph46.0 kmh 30.28 in1025.4 mb - 0.00 in0.0 mm 0.00 in0.0 mm
11:07 AM 55.9°F13.3°C 42.3°F5.7°C 60% 13.2 mph WNW21.2 kmh WNW 30.0 mph48.3 kmh 30.28 in1025.4 mb - 0.00 in0.0 mm 0.00 in0.0 mm
11:12 AM 56.1°F13.4°C 42.1°F5.6°C 59% 11.2 mph NW18.0 kmh NW 22.1 mph35.6 kmh 30.28 in1025.4 mb - 0.00 in0.0 mm 0.00 in0.0 mm
11:17 AM 55.9°F13.3°C 41.9°F5.5°C 59% 8.1 mph SW13.0 kmh SW 17.4 mph28.0 kmh 30.28 in1025.4 mb - 0.00 in0.0 mm 0.00 in0.0 mm
11:22 AM 55.9°F13.3°C 41.4°F5.2°C 58% 9.6 mph W15.4 kmh W 19.2 mph30.9 kmh 30.28 in1025.4 mb - 0.00 in0.0 mm 0.00 in0.0 mm
11:27 AM 55.9°F13.3°C 41.0°F5.0°C 57% 11.4 mph NW18.3 kmh NW 21.7 mph34.9 kmh 30.28 in1025.4 mb - 0.00 in0.0 mm 0.00 in0.0 mm
11:32 AM 56.1°F13.4°C 41.2°F5.1°C 57% 13.9 mph WNW22.4 kmh WNW 27.3 mph43.9 kmh 30.28 in1025.4 mb - 0.00 in0.0 mm 0.00 in0.0 mm
11:37 AM 56.1°F13.4°C 40.6°F4.8°C 56% 13.2 mph WNW21.2 kmh WNW 24.2 mph38.9 kmh 30.28 in1025.4 mb - 0.00 in0.0 mm 0.00 in0.0 mm
11:42 AM 56.5°F13.6°C 41.0°F5.0°C 56% 10.1 mph WNW16.3 kmh WNW 23.5 mph37.8 kmh 30.28 in1025.4 mb - 0.00 in0.0 mm 0.00 in0.0 mm
11:47 AM 56.5°F13.6°C 41.0°F5.0°C 56% 13.9 mph W22.4 kmh W 27.7 mph44.6 kmh 30.28 in1025.4 mb - 0.00 in0.0 mm 0.00 in0.0 mm
11:52 AM 56.8°F13.8°C 40.8°F4.9°C 55% 12.3 mph W19.8 kmh W 25.7 mph41.4 kmh 30.25 in1024.4 mb - 0.00 in0.0 mm 0.00 in0.0 mm
11:57 AM 57.4°F14.1°C 40.8°F4.9°C 54% 11.0 mph NW17.7 kmh NW 21.3 mph34.3 kmh 30.25 in1024.4 mb - 0.00 in0.0 mm 0.00 in0.0 mm
12:02 PM 57.4°F14.1°C 40.8°F4.9°C 54% 9.8 mph NW15.8 kmh NW 20.6 mph33.2 kmh 30.25 in1024.4 mb - 0.00 in0.0 mm 0.00 in0.0 mm
12:07 PM 57.7°F14.3°C 41.2°F5.1°C 54% 11.4 mph WNW18.3 kmh WNW 27.1 mph43.6 kmh 30.28 in1025.4 mb - 0.00 in0.0 mm 0.00 in0.0 mm
12:12 PM 58.1°F14.5°C 41.5°F5.3°C 54% 16.3 mph SW26.2 kmh SW 28.2 mph45.4 kmh 30.28 in1025.4 mb - 0.00 in0.0 mm 0.00 in0.0 mm
12:17 PM 58.3°F14.6°C 41.7°F5.4°C 54% 11.0 mph NW17.7 kmh NW 23.5 mph37.8 kmh 30.28 in1025.4 mb - 0.00 in0.0 mm 0.00 in0.0 mm
12:22 PM 58.3°F14.6°C 41.2°F5.1°C 53% 8.1 mph WSW13.0 kmh WSW 19.2 mph30.9 kmh 30.28 in1025.4 mb - 0.00 in0.0 mm 0.00 in0.0 mm
12:27 PM 58.1°F14.5°C 41.0°F5.0°C 53% 11.9 mph WNW19.2 kmh WNW 21.5 mph34.6 kmh 30.28 in1025.4 mb - 0.00 in0.0 mm 0.00 in0.0 mm
12:32 PM 57.6°F14.2°C 40.6°F4.8°C 53% 13.4 mph WNW21.6 kmh WNW 25.9 mph41.7 kmh 30.28 in1025.4 mb - 0.00 in0.0 mm 0.00 in0.0 mm
12:37 PM 57.7°F14.3°C 40.8°F4.9°C 53% 12.8 mph NW20.6 kmh NW 32.0 mph51.5 kmh 30.28 in1025.4 mb - 0.00 in0.0 mm 0.00 in0.0 mm
12:42 PM 57.9°F14.4°C 41.0°F5.0°C 53% 13.9 mph NW22.4 kmh NW 28.6 mph46.0 kmh 30.28 in1025.4 mb - 0.00 in0.0 mm 0.00 in0.0 mm
12:47 PM 57.7°F14.3°C 40.8°F4.9°C 53% 13.9 mph WNW22.4 kmh WNW 27.5 mph44.3 kmh 30.28 in1025.4 mb - 0.00 in0.0 mm 0.00 in0.0 mm
12:52 PM 57.9°F14.4°C 41.0°F5.0°C 53% 12.1 mph W19.5 kmh W 26.8 mph43.1 kmh 30.25 in1024.4 mb - 0.00 in0.0 mm 0.00 in0.0 mm
12:57 PM 58.1°F14.5°C 41.0°F5.0°C 53% 11.6 mph NW18.7 kmh NW 30.0 mph48.3 kmh 30.25 in1024.4 mb - 0.00 in0.0 mm 0.00 in0.0 mm
01:02 PM 58.5°F14.7°C 41.4°F5.2°C 53% 12.1 mph W19.5 kmh W 25.1 mph40.4 kmh 30.25 in1024.4 mb - 0.00 in0.0 mm 0.00 in0.0 mm
01:07 PM 58.8°F14.9°C 41.7°F5.4°C 53% 11.6 mph NW18.7 kmh NW 28.2 mph45.4 kmh 30.28 in1025.4 mb - 0.00 in0.0 mm 0.00 in0.0 mm
01:12 PM 58.6°F14.8°C 41.2°F5.1°C 52% 13.9 mph WNW22.4 kmh WNW 28.9 mph46.5 kmh 30.28 in1025.4 mb - 0.00 in0.0 mm 0.00 in0.0 mm
01:17 PM 58.5°F14.7°C 41.0°F5.0°C 52% 11.2 mph NW18.0 kmh NW 23.3 mph37.5 kmh 30.28 in1025.4 mb - 0.00 in0.0 mm 0.00 in0.0 mm
01:22 PM 58.5°F14.7°C 41.0°F5.0°C 52% 11.9 mph WNW19.2 kmh WNW 21.7 mph34.9 kmh 30.25 in1024.4 mb - 0.00 in0.0 mm 0.00 in0.0 mm
01:27 PM 59.4°F15.2°C 41.7°F5.4°C 52% 14.3 mph NW23.0 kmh NW 27.5 mph44.3 kmh 30.25 in1024.4 mb - 0.00 in0.0 mm 0.00 in0.0 mm
01:32 PM 59.7°F15.4°C 41.5°F5.3°C 51% 13.2 mph NW21.2 kmh NW 13.2 mph21.2 kmh 30.25 in1024.4 mb - 0.00 in0.0 mm 0.00 in0.0 mm
01:37 PM 59.4°F15.2°C 41.2°F5.1°C 51% 11.0 mph WNW17.7 kmh WNW 21.7 mph34.9 kmh 30.22 in1023.4 mb - 0.00 in0.0 mm 0.00 in0.0 mm
01:42 PM 59.2°F15.1°C 41.0°F5.0°C 51% 13.2 mph W21.2 kmh W 28.0 mph45.1 kmh 30.22 in1023.4 mb - 0.00 in0.0 mm 0.00 in0.0 mm
01:47 PM 59.2°F15.1°C 41.0°F5.0°C 51% 12.8 mph NW20.6 kmh NW 27.7 mph44.6 kmh 30.22 in1023.4 mb - 0.00 in0.0 mm 0.00 in0.0 mm
01:52 PM 59.9°F15.5°C 41.7°F5.4°C 51% 14.5 mph NW23.3 kmh NW 30.4 mph48.9 kmh 30.22 in1023.4 mb - 0.00 in0.0 mm 0.00 in0.0 mm
01:57 PM 59.9°F15.5°C 41.7°F5.4°C 51% 13.0 mph WNW20.9 kmh WNW 23.9 mph38.5 kmh 30.22 in1023.4 mb - 0.00 in0.0 mm 0.00 in0.0 mm
02:02 PM 59.9°F15.5°C 41.7°F5.4°C 51% 10.1 mph WSW16.3 kmh WSW 23.0 mph37.0 kmh 30.22 in1023.4 mb - 0.00 in0.0 mm 0.00 in0.0 mm
02:07 PM 60.1°F15.6°C 41.4°F5.2°C 50% 13.6 mph NW21.9 kmh NW 24.8 mph39.9 kmh 30.22 in1023.4 mb - 0.00 in0.0 mm 0.00 in0.0 mm
02:12 PM 60.1°F15.6°C 41.9°F5.5°C 51% 14.1 mph SW22.7 kmh SW 30.0 mph48.3 kmh 30.22 in1023.4 mb - 0.00 in0.0 mm 0.00 in0.0 mm
02:17 PM 60.6°F15.9°C 41.9°F5.5°C 50% 15.0 mph W24.1 kmh W 24.4 mph39.3 kmh 30.22 in1023.4 mb - 0.00 in0.0 mm 0.00 in0.0 mm
02:22 PM 60.6°F15.9°C 41.9°F5.5°C 50% 8.5 mph WSW13.7 kmh WSW 23.0 mph37.0 kmh 30.22 in1023.4 mb - 0.00 in0.0 mm 0.00 in0.0 mm
02:27 PM 60.8°F16.0°C 42.1°F5.6°C 50% 12.3 mph W19.8 kmh W 25.5 mph41.0 kmh 30.22 in1023.4 mb - 0.00 in0.0 mm 0.00 in0.0 mm
02:32 PM 60.1°F15.6°C 41.4°F5.2°C 50% 11.6 mph WNW18.7 kmh WNW 30.2 mph48.6 kmh 30.22 in1023.4 mb - 0.00 in0.0 mm 0.00 in0.0 mm
02:37 PM 60.6°F15.9°C 41.9°F5.5°C 50% 14.1 mph NW22.7 kmh NW 24.8 mph39.9 kmh 30.22 in1023.4 mb - 0.00 in0.0 mm 0.00 in0.0 mm
02:42 PM 60.8°F16.0°C 42.1°F5.6°C 50% 14.3 mph W23.0 kmh W 25.5 mph41.0 kmh 30.22 in1023.4 mb - 0.00 in0.0 mm 0.00 in0.0 mm
02:47 PM 60.4°F15.8°C 41.2°F5.1°C 49% 14.8 mph W23.8 kmh W 27.1 mph43.6 kmh 30.22 in1023.4 mb - 0.00 in0.0 mm 0.00 in0.0 mm
02:52 PM 60.4°F15.8°C 41.7°F5.4°C 50% 12.3 mph WNW19.8 kmh WNW 30.4 mph48.9 kmh 30.22 in1023.4 mb - 0.00 in0.0 mm 0.00 in0.0 mm
02:57 PM 60.6°F15.9°C 41.9°F5.5°C 50% 15.0 mph WNW24.1 kmh WNW 28.4 mph45.7 kmh 30.22 in1023.4 mb - 0.00 in0.0 mm 0.00 in0.0 mm
03:02 PM 60.6°F15.9°C 41.9°F5.5°C 50% 11.4 mph NW18.3 kmh NW 22.6 mph36.4 kmh 30.22 in1023.4 mb - 0.00 in0.0 mm 0.00 in0.0 mm
03:07 PM 60.4°F15.8°C 41.7°F5.4°C 50% 13.6 mph W21.9 kmh W 24.4 mph39.3 kmh 30.19 in1022.4 mb - 0.00 in0.0 mm 0.00 in0.0 mm
03:12 PM 60.4°F15.8°C 41.7°F5.4°C 50% 15.2 mph WSW24.5 kmh WSW 28.6 mph46.0 kmh 30.19 in1022.4 mb - 0.00 in0.0 mm 0.00 in0.0 mm
03:17 PM 60.4°F15.8°C 41.7°F5.4°C 50% 12.5 mph WNW20.1 kmh WNW 24.6 mph39.6 kmh 30.19 in1022.4 mb - 0.00 in0.0 mm 0.00 in0.0 mm
03:22 PM 60.8°F16.0°C 42.1°F5.6°C 50% 15.0 mph WNW24.1 kmh WNW 28.9 mph46.5 kmh 30.19 in1022.4 mb - 0.00 in0.0 mm 0.00 in0.0 mm
03:27 PM 61.0°F16.1°C 42.3°F5.7°C 50% 12.1 mph NW19.5 kmh NW 25.3 mph40.7 kmh 30.19 in1022.4 mb - 0.00 in0.0 mm 0.00 in0.0 mm
03:32 PM 61.3°F16.3°C 42.6°F5.9°C 50% 11.6 mph NW18.7 kmh NW 25.1 mph40.4 kmh 30.19 in1022.4 mb - 0.00 in0.0 mm 0.00 in0.0 mm
03:37 PM 61.0°F16.1°C 42.3°F5.7°C 50% 8.9 mph WNW14.3 kmh WNW 19.7 mph31.7 kmh 30.19 in1022.4 mb - 0.00 in0.0 mm 0.00 in0.0 mm
03:42 PM 61.2°F16.2°C 42.4°F5.8°C 50% 12.5 mph NW20.1 kmh NW 25.5 mph41.0 kmh 30.19 in1022.4 mb - 0.00 in0.0 mm 0.00 in0.0 mm
03:47 PM 61.0°F16.1°C 42.3°F5.7°C 50% 9.2 mph W14.8 kmh W 19.2 mph30.9 kmh 30.19 in1022.4 mb - 0.00 in0.0 mm 0.00 in0.0 mm
03:52 PM 60.8°F16.0°C 42.1°F5.6°C 50% 8.9 mph WSW14.3 kmh WSW 19.0 mph30.6 kmh 30.22 in1023.4 mb - 0.00 in0.0 mm 0.00 in0.0 mm
03:57 PM 61.0°F16.1°C 42.3°F5.7°C 50% 13.4 mph WNW21.6 kmh WNW 27.5 mph44.3 kmh 30.22 in1023.4 mb - 0.00 in0.0 mm 0.00 in0.0 mm
04:02 PM 61.0°F16.1°C 42.3°F5.7°C 50% 10.5 mph NW16.9 kmh NW 23.0 mph37.0 kmh 30.22 in1023.4 mb - 0.00 in0.0 mm 0.00 in0.0 mm
04:07 PM 61.0°F16.1°C 42.3°F5.7°C 50% 13.2 mph NW21.2 kmh NW 25.7 mph41.4 kmh 30.22 in1023.4 mb - 0.00 in0.0 mm 0.00 in0.0 mm
04:12 PM 61.0°F16.1°C 42.3°F5.7°C 50% 10.5 mph WNW16.9 kmh WNW 20.4 mph32.8 kmh 30.22 in1023.4 mb - 0.00 in0.0 mm 0.00 in0.0 mm
04:17 PM 61.0°F16.1°C 42.3°F5.7°C 50% 12.3 mph NW19.8 kmh NW 22.1 mph35.6 kmh 30.22 in1023.4 mb - 0.00 in0.0 mm 0.00 in0.0 mm
04:22 PM 61.0°F16.1°C 42.3°F5.7°C 50% 12.5 mph NW20.1 kmh NW 24.4 mph39.3 kmh 30.19 in1022.4 mb - 0.00 in0.0 mm 0.00 in0.0 mm
04:27 PM 60.8°F16.0°C 42.1°F5.6°C 50% 13.6 mph NW21.9 kmh NW 26.4 mph42.5 kmh 30.19 in1022.4 mb - 0.00 in0.0 mm 0.00 in0.0 mm
04:32 PM 60.8°F16.0°C 42.1°F5.6°C 50% 13.0 mph W20.9 kmh W 24.2 mph38.9 kmh 30.19 in1022.4 mb - 0.00 in0.0 mm 0.00 in0.0 mm
04:37 PM 60.6°F15.9°C 41.9°F5.5°C 50% 13.0 mph NW20.9 kmh NW 31.1 mph50.1 kmh 30.19 in1022.4 mb - 0.00 in0.0 mm 0.00 in0.0 mm
04:42 PM 60.6°F15.9°C 41.9°F5.5°C 50% 13.9 mph NW22.4 kmh NW 25.3 mph40.7 kmh 30.19 in1022.4 mb - 0.00 in0.0 mm 0.00 in0.0 mm
04:47 PM 60.6°F15.9°C 41.9°F5.5°C 50% 13.4 mph NW21.6 kmh NW 27.5 mph44.3 kmh 30.19 in1022.4 mb - 0.00 in0.0 mm 0.00 in0.0 mm
04:52 PM 60.6°F15.9°C 41.9°F5.5°C 50% 12.3 mph NW19.8 kmh NW 23.7 mph38.1 kmh 30.19 in1022.4 mb - 0.00 in0.0 mm 0.00 in0.0 mm
04:57 PM 60.3°F15.7°C 42.1°F5.6°C 51% 9.8 mph NW15.8 kmh NW 20.4 mph32.8 kmh 30.19 in1022.4 mb - 0.00 in0.0 mm 0.00 in0.0 mm
05:02 PM 60.3°F15.7°C 42.1°F5.6°C 51% 10.3 mph WNW16.6 kmh WNW 18.1 mph29.1 kmh 30.19 in1022.4 mb - 0.00 in0.0 mm 0.00 in0.0 mm
05:07 PM 59.7°F15.4°C 42.1°F5.6°C 52% 13.0 mph WNW20.9 kmh WNW 21.9 mph35.2 kmh 30.19 in1022.4 mb - 0.00 in0.0 mm 0.00 in0.0 mm
05:12 PM 59.4°F15.2°C 41.7°F5.4°C 52% 10.1 mph WNW16.3 kmh WNW 21.5 mph34.6 kmh 30.19 in1022.4 mb - 0.00 in0.0 mm 0.00 in0.0 mm
05:17 PM 59.2°F15.1°C 41.5°F5.3°C 52% 8.3 mph WSW13.4 kmh WSW 17.7 mph28.5 kmh 30.19 in1022.4 mb - 0.00 in0.0 mm 0.00 in0.0 mm
05:22 PM 59.2°F15.1°C 42.1°F5.6°C 53% 7.2 mph WNW11.6 kmh WNW 19.2 mph30.9 kmh 30.19 in1022.4 mb - 0.00 in0.0 mm 0.00 in0.0 mm
05:27 PM 59.0°F15.0°C 41.9°F5.5°C 53% 5.6 mph W9.0 kmh W 12.1 mph19.5 kmh 30.19 in1022.4 mb - 0.00 in0.0 mm 0.00 in0.0 mm
05:32 PM 58.8°F14.9°C 41.7°F5.4°C 53% 8.9 mph WSW14.3 kmh WSW 17.4 mph28.0 kmh 30.19 in1022.4 mb - 0.00 in0.0 mm 0.00 in0.0 mm
05:37 PM 58.6°F14.8°C 41.5°F5.3°C 53% 7.6 mph WNW12.2 kmh WNW 17.7 mph28.5 kmh 30.22 in1023.4 mb - 0.00 in0.0 mm 0.00 in0.0 mm
05:42 PM 58.5°F14.7°C 41.4°F5.2°C 53% 5.1 mph N8.2 kmh N 14.1 mph22.7 kmh 30.22 in1023.4 mb - 0.00 in0.0 mm 0.00 in0.0 mm
05:47 PM 58.3°F14.6°C 41.2°F5.1°C 53% 4.7 mph WSW7.6 kmh WSW 10.5 mph16.9 kmh 30.22 in1023.4 mb - 0.00 in0.0 mm 0.00 in0.0 mm
05:52 PM 58.3°F14.6°C 41.2°F5.1°C 53% 6.7 mph W10.8 kmh W 18.8 mph30.3 kmh 30.22 in1023.4 mb - 0.00 in0.0 mm 0.00 in0.0 mm
05:57 PM 58.1°F14.5°C 41.5°F5.3°C 54% 4.3 mph W6.9 kmh W 17.2 mph27.7 kmh 30.22 in1023.4 mb - 0.00 in0.0 mm 0.00 in0.0 mm
06:02 PM 57.9°F14.4°C 41.4°F5.2°C 54% 6.7 mph NNW10.8 kmh NNW 14.3 mph23.0 kmh 30.22 in1023.4 mb - 0.00 in0.0 mm 0.00 in0.0 mm
06:07 PM 57.9°F14.4°C 41.4°F5.2°C 54% 8.1 mph NW13.0 kmh NW 15.4 mph24.8 kmh 30.22 in1023.4 mb - 0.00 in0.0 mm 0.00 in0.0 mm
06:12 PM 57.9°F14.4°C 41.4°F5.2°C 54% 8.5 mph NW13.7 kmh NW 17.2 mph27.7 kmh 30.22 in1023.4 mb - 0.00 in0.0 mm 0.00 in0.0 mm
06:17 PM 57.7°F14.3°C 41.2°F5.1°C 54% 9.2 mph WNW14.8 kmh WNW 17.0 mph27.4 kmh 30.22 in1023.4 mb - 0.00 in0.0 mm 0.00 in0.0 mm
06:22 PM 57.7°F14.3°C 41.2°F5.1°C 54% 8.3 mph NW13.4 kmh NW 16.1 mph25.9 kmh 30.22 in1023.4 mb - 0.00 in0.0 mm 0.00 in0.0 mm
06:27 PM 57.7°F14.3°C 41.2°F5.1°C 54% 8.5 mph NW13.7 kmh NW 19.9 mph32.0 kmh 30.22 in1023.4 mb - 0.00 in0.0 mm 0.00 in0.0 mm
06:32 PM 57.7°F14.3°C 41.2°F5.1°C 54% 7.6 mph NW12.2 kmh NW 15.0 mph24.1 kmh 30.22 in1023.4 mb - 0.00 in0.0 mm 0.00 in0.0 mm
06:37 PM 57.7°F14.3°C 41.2°F5.1°C 54% 8.1 mph WNW13.0 kmh WNW 14.8 mph23.8 kmh 30.22 in1023.4 mb - 0.00 in0.0 mm 0.00 in0.0 mm
06:42 PM 57.7°F14.3°C 41.2°F5.1°C 54% 5.4 mph WNW8.7 kmh WNW 15.7 mph25.3 kmh 30.22 in1023.4 mb - 0.00 in0.0 mm 0.00 in0.0 mm
06:47 PM 57.7°F14.3°C 41.2°F5.1°C 54% 7.6 mph NW12.2 kmh NW 7.6 mph12.2 kmh 30.22 in1023.4 mb - 0.00 in0.0 mm 0.00 in0.0 mm
06:52 PM 57.9°F14.4°C 41.4°F5.2°C 54% 7.6 mph NW12.2 kmh NW 16.3 mph26.2 kmh 30.22 in1023.4 mb - 0.00 in0.0 mm 0.00 in0.0 mm
06:57 PM 57.9°F14.4°C 41.4°F5.2°C 54% 7.6 mph W12.2 kmh W 16.8 mph27.0 kmh 30.22 in1023.4 mb - 0.00 in0.0 mm 0.00 in0.0 mm
07:02 PM 58.1°F14.5°C 41.5°F5.3°C 54% 9.2 mph W14.8 kmh W 18.1 mph29.1 kmh 30.22 in1023.4 mb - 0.00 in0.0 mm 0.00 in0.0 mm
07:07 PM 58.1°F14.5°C 41.5°F5.3°C 54% 9.2 mph WNW14.8 kmh WNW 19.0 mph30.6 kmh 30.19 in1022.4 mb - 0.00 in0.0 mm 0.00 in0.0 mm
07:12 PM 58.1°F14.5°C 41.5°F5.3°C 54% 10.1 mph W16.3 kmh W 21.3 mph34.3 kmh 30.19 in1022.4 mb - 0.00 in0.0 mm 0.00 in0.0 mm
07:17 PM 58.3°F14.6°C 41.7°F5.4°C 54% 5.6 mph WSW9.0 kmh WSW 16.6 mph26.7 kmh 30.19 in1022.4 mb - 0.00 in0.0 mm 0.00 in0.0 mm
07:22 PM 58.3°F14.6°C 41.7°F5.4°C 54% 9.2 mph NW14.8 kmh NW 16.1 mph25.9 kmh 30.19 in1022.4 mb - 0.00 in0.0 mm 0.00 in0.0 mm
07:27 PM 58.3°F14.6°C 41.7°F5.4°C 54% 9.2 mph WSW14.8 kmh WSW 15.7 mph25.3 kmh 30.19 in1022.4 mb - 0.00 in0.0 mm 0.00 in0.0 mm
07:32 PM 58.3°F14.6°C 41.7°F5.4°C 54% 6.9 mph W11.1 kmh W 14.3 mph23.0 kmh 30.19 in1022.4 mb - 0.00 in0.0 mm 0.00 in0.0 mm
07:37 PM 58.3°F14.6°C 41.7°F5.4°C 54% 8.9 mph W14.3 kmh W 17.0 mph27.4 kmh 30.19 in1022.4 mb - 0.00 in0.0 mm 0.00 in0.0 mm
07:42 PM 58.3°F14.6°C 41.7°F5.4°C 54% 9.8 mph WSW15.8 kmh WSW 19.2 mph30.9 kmh 30.19 in1022.4 mb - 0.00 in0.0 mm 0.00 in0.0 mm
07:47 PM 58.3°F14.6°C 41.7°F5.4°C 54% 8.7 mph WSW14.0 kmh WSW 16.3 mph26.2 kmh 30.19 in1022.4 mb - 0.00 in0.0 mm 0.00 in0.0 mm
07:52 PM 58.3°F14.6°C 41.7°F5.4°C 54% 9.4 mph W15.1 kmh W 21.9 mph35.2 kmh 30.19 in1022.4 mb - 0.00 in0.0 mm 0.00 in0.0 mm
07:57 PM 58.3°F14.6°C 41.7°F5.4°C 54% 7.6 mph W12.2 kmh W 18.3 mph29.5 kmh 30.19 in1022.4 mb - 0.00 in0.0 mm 0.00 in0.0 mm
08:02 PM 58.3°F14.6°C 41.7°F5.4°C 54% 4.7 mph NW7.6 kmh NW 10.3 mph16.6 kmh 30.19 in1022.4 mb - 0.00 in0.0 mm 0.00 in0.0 mm
08:07 PM 58.3°F14.6°C 42.3°F5.7°C 55% 6.0 mph NW9.7 kmh NW 15.0 mph24.1 kmh 30.19 in1022.4 mb - 0.00 in0.0 mm 0.00 in0.0 mm
08:12 PM 58.3°F14.6°C 42.3°F5.7°C 55% 7.8 mph WNW12.6 kmh WNW 17.2 mph27.7 kmh 30.19 in1022.4 mb - 0.00 in0.0 mm 0.00 in0.0 mm
08:17 PM 58.3°F14.6°C 42.3°F5.7°C 55% 9.4 mph NW15.1 kmh NW 18.6 mph29.9 kmh 30.19 in1022.4 mb - 0.00 in0.0 mm 0.00 in0.0 mm
08:22 PM 58.3°F14.6°C 42.3°F5.7°C 55% 8.5 mph WNW13.7 kmh WNW 18.1 mph29.1 kmh 30.19 in1022.4 mb - 0.00 in0.0 mm 0.00 in0.0 mm
08:27 PM 58.3°F14.6°C 42.3°F5.7°C 55% 7.4 mph NW11.9 kmh NW 13.2 mph21.2 kmh 30.19 in1022.4 mb - 0.00 in0.0 mm 0.00 in0.0 mm
08:32 PM 58.3°F14.6°C 42.3°F5.7°C 55% 7.4 mph W11.9 kmh W 13.4 mph21.6 kmh 30.19 in1022.4 mb - 0.00 in0.0 mm 0.00 in0.0 mm
08:37 PM 58.3°F14.6°C 42.3°F5.7°C 55% 8.3 mph W13.4 kmh W 16.1 mph25.9 kmh 30.19 in1022.4 mb - 0.00 in0.0 mm 0.00 in0.0 mm
08:42 PM 58.3°F14.6°C 42.3°F5.7°C 55% 7.4 mph WNW11.9 kmh WNW 17.2 mph27.7 kmh 30.19 in1022.4 mb - 0.00 in0.0 mm 0.00 in0.0 mm
08:47 PM 58.3°F14.6°C 42.3°F5.7°C 55% 5.4 mph NW8.7 kmh NW 12.1 mph19.5 kmh 30.19 in1022.4 mb - 0.00 in0.0 mm 0.00 in0.0 mm
08:52 PM 58.3°F14.6°C 42.3°F5.7°C 55% 6.3 mph W10.1 kmh W 13.6 mph21.9 kmh 30.19 in1022.4 mb - 0.00 in0.0 mm 0.00 in0.0 mm
08:57 PM 58.3°F14.6°C 42.3°F5.7°C 55% 6.7 mph WSW10.8 kmh WSW 13.0 mph20.9 kmh 30.19 in1022.4 mb - 0.00 in0.0 mm 0.00 in0.0 mm
09:02 PM 58.1°F14.5°C 42.4°F5.8°C 56% 7.6 mph W12.2 kmh W 17.4 mph28.0 kmh 30.19 in1022.4 mb - 0.00 in0.0 mm 0.00 in0.0 mm
09:07 PM 57.9°F14.4°C 42.8°F6.0°C 57% 11.9 mph WNW19.2 kmh WNW 25.5 mph41.0 kmh 30.19 in1022.4 mb - 0.00 in0.0 mm 0.00 in0.0 mm
09:12 PM 57.7°F14.3°C 43.2°F6.2°C 58% 6.3 mph NW10.1 kmh NW 16.3 mph26.2 kmh 30.19 in1022.4 mb - 0.00 in0.0 mm 0.00 in0.0 mm
09:17 PM 57.6°F14.2°C 43.3°F6.3°C 59% 10.3 mph W16.6 kmh W 24.2 mph38.9 kmh 30.19 in1022.4 mb - 0.00 in0.0 mm 0.00 in0.0 mm
09:22 PM 57.6°F14.2°C 43.9°F6.6°C 60% 9.8 mph W15.8 kmh W 25.9 mph41.7 kmh 30.19 in1022.4 mb - 0.00 in0.0 mm 0.00 in0.0 mm
09:27 PM 57.4°F14.1°C 43.2°F6.2°C 59% 9.8 mph WSW15.8 kmh WSW 20.8 mph33.5 kmh 30.19 in1022.4 mb - 0.00 in0.0 mm 0.00 in0.0 mm
09:32 PM 57.4°F14.1°C 43.7°F6.5°C 60% 7.2 mph WNW11.6 kmh WNW 14.8 mph23.8 kmh 30.19 in1022.4 mb - 0.00 in0.0 mm 0.00 in0.0 mm
09:37 PM 57.4°F14.1°C 43.7°F6.5°C 60% 5.4 mph WNW8.7 kmh WNW 14.1 mph22.7 kmh 30.19 in1022.4 mb - 0.00 in0.0 mm 0.00 in0.0 mm
09:42 PM 57.6°F14.2°C 43.9°F6.6°C 60% 6.5 mph WNW10.5 kmh WNW 12.8 mph20.6 kmh 30.19 in1022.4 mb - 0.00 in0.0 mm 0.00 in0.0 mm
09:47 PM 57.6°F14.2°C 43.9°F6.6°C 60% 6.5 mph NNW10.5 kmh NNW 17.7 mph28.5 kmh 30.19 in1022.4 mb - 0.00 in0.0 mm 0.00 in0.0 mm
09:52 PM 57.7°F14.3°C 43.5°F6.4°C 59% 7.6 mph WSW12.2 kmh WSW 18.8 mph30.3 kmh 30.19 in1022.4 mb - 0.00 in0.0 mm 0.00 in0.0 mm
09:57 PM 57.7°F14.3°C 43.5°F6.4°C 59% 9.8 mph WNW15.8 kmh WNW 17.0 mph27.4 kmh 30.19 in1022.4 mb - 0.00 in0.0 mm 0.00 in0.0 mm
10:02 PM 57.7°F14.3°C 43.5°F6.4°C 59% 9.6 mph W15.4 kmh W 18.1 mph29.1 kmh 30.19 in1022.4 mb - 0.00 in0.0 mm 0.00 in0.0 mm
10:07 PM 57.7°F14.3°C 43.9°F6.6°C 60% 8.7 mph NW14.0 kmh NW 23.7 mph38.1 kmh 30.19 in1022.4 mb - 0.00 in0.0 mm 0.00 in0.0 mm
10:12 PM 57.7°F14.3°C 43.9°F6.6°C 60% 6.9 mph WNW11.1 kmh WNW 15.7 mph25.3 kmh 30.19 in1022.4 mb - 0.00 in0.0 mm 0.00 in0.0 mm
10:17 PM 57.6°F14.2°C 43.9°F6.6°C 60% 7.6 mph NW12.2 kmh NW 15.0 mph24.1 kmh 30.19 in1022.4 mb - 0.00 in0.0 mm 0.00 in0.0 mm
10:22 PM 57.6°F14.2°C 44.2°F6.8°C 61% 6.0 mph NW9.7 kmh NW 13.2 mph21.2 kmh 30.19 in1022.4 mb - 0.00 in0.0 mm 0.00 in0.0 mm
10:27 PM 57.4°F14.1°C 44.4°F6.9°C 62% 7.6 mph W12.2 kmh W 14.8 mph23.8 kmh 30.19 in1022.4 mb - 0.00 in0.0 mm 0.00 in0.0 mm
10:32 PM 57.2°F14.0°C 44.2°F6.8°C 62% 8.5 mph NW13.7 kmh NW 18.3 mph29.5 kmh 30.19 in1022.4 mb - 0.00 in0.0 mm 0.00 in0.0 mm
10:37 PM 57.0°F13.9°C 44.6°F7.0°C 63% 11.0 mph NW17.7 kmh NW 21.9 mph35.2 kmh 30.19 in1022.4 mb - 0.00 in0.0 mm 0.00 in0.0 mm
10:42 PM 56.8°F13.8°C 44.4°F6.9°C 63% 10.3 mph NW16.6 kmh NW 18.8 mph30.3 kmh 30.19 in1022.4 mb - 0.00 in0.0 mm 0.00 in0.0 mm
10:47 PM 56.7°F13.7°C 45.0°F7.2°C 65% 9.2 mph W14.8 kmh W 20.6 mph33.2 kmh 30.19 in1022.4 mb - 0.00 in0.0 mm 0.00 in0.0 mm
10:52 PM 56.3°F13.5°C 45.9°F7.7°C 68% 10.3 mph NW16.6 kmh NW 17.0 mph27.4 kmh 30.19 in1022.4 mb - 0.00 in0.0 mm 0.00 in0.0 mm
10:57 PM 55.8°F13.2°C 46.6°F8.1°C 71% 6.9 mph WNW11.1 kmh WNW 17.7 mph28.5 kmh 30.19 in1022.4 mb - 0.00 in0.0 mm 0.00 in0.0 mm
11:02 PM 55.4°F13.0°C 47.3°F8.5°C 74% 8.7 mph NW14.0 kmh NW 14.3 mph23.0 kmh 30.19 in1022.4 mb - 0.00 in0.0 mm 0.00 in0.0 mm
11:07 PM 55.2°F12.9°C 47.5°F8.6°C 75% 8.3 mph W13.4 kmh W 19.7 mph31.7 kmh 30.19 in1022.4 mb - 0.00 in0.0 mm 0.00 in0.0 mm
11:12 PM 54.9°F12.7°C 47.8°F8.8°C 77% 8.9 mph WNW14.3 kmh WNW 16.6 mph26.7 kmh 30.19 in1022.4 mb - 0.00 in0.0 mm 0.00 in0.0 mm
11:17 PM 54.7°F12.6°C 48.0°F8.9°C 78% 7.8 mph NW12.6 kmh NW 20.4 mph32.8 kmh 30.19 in1022.4 mb - 0.00 in0.0 mm 0.00 in0.0 mm
11:22 PM 54.7°F12.6°C 48.0°F8.9°C 78% 6.7 mph SW10.8 kmh SW 14.3 mph23.0 kmh 30.16 in1021.3 mb - 0.00 in0.0 mm 0.00 in0.0 mm
11:27 PM 54.7°F12.6°C 48.0°F8.9°C 78% 4.9 mph WNW7.9 kmh WNW 9.4 mph15.1 kmh 30.16 in1021.3 mb - 0.00 in0.0 mm 0.00 in0.0 mm
11:32 PM 54.5°F12.5°C 48.2°F9.0°C 79% 4.7 mph WSW7.6 kmh WSW 10.5 mph16.9 kmh 30.16 in1021.3 mb - 0.00 in0.0 mm 0.00 in0.0 mm
11:37 PM 54.5°F12.5°C 48.4°F9.1°C 80% 5.1 mph W8.2 kmh W 10.7 mph17.2 kmh 30.19 in1022.4 mb - 0.00 in0.0 mm 0.00 in0.0 mm
11:42 PM 54.5°F12.5°C 48.4°F9.1°C 80% 6.9 mph SW11.1 kmh SW 14.3 mph23.0 kmh 30.19 in1022.4 mb - 0.00 in0.0 mm 0.00 in0.0 mm
11:47 PM 54.3°F12.4°C 48.4°F9.1°C 80% 6.9 mph W11.1 kmh W 14.8 mph23.8 kmh 30.19 in1022.4 mb - 0.00 in0.0 mm 0.00 in0.0 mm
11:52 PM 54.3°F12.4°C 48.4°F9.1°C 80% 6.5 mph NW10.5 kmh NW 6.5 mph10.5 kmh 30.19 in1022.4 mb - 0.00 in0.0 mm 0.00 in0.0 mm
11:57 PM 54.3°F12.4°C 48.6°F9.2°C 81% 4.7 mph W7.6 kmh W 11.2 mph18.0 kmh 30.19 in1022.4 mb - 0.00 in0.0 mm 0.00 in0.0 mm